createdAt,value
2023-04-28T00:04:24.093Z,10.27
2023-04-28T00:09:20.117Z,11.31
2023-04-28T00:14:16.302Z,10.27
2023-04-28T00:19:10.664Z,10.07
2023-04-28T00:24:04.156Z,10.01
2023-04-28T00:29:09.913Z,10.33
2023-04-28T00:34:22.227Z,11.27
2023-04-28T00:39:16.917Z,11.28
2023-04-28T00:44:37.016Z,11.07
2023-04-28T00:49:46.141Z,10.37
2023-04-28T00:54:39.622Z,9.98
2023-04-28T01:05:02.766Z,10.70
2023-04-28T01:09:59.350Z,9.65
2023-04-28T01:14:57.568Z,11.10
2023-04-28T01:19:50.945Z,11.10
2023-04-28T01:24:45.973Z,11.10
2023-04-28T01:29:41.050Z,10.09
2023-04-28T01:34:55.937Z,10.17
2023-04-28T01:39:50.870Z,11.08
2023-04-28T01:45:00.096Z,10.45
2023-04-28T01:50:50.334Z,11.12
2023-04-28T01:56:25.968Z,9.92
2023-04-28T02:01:25.523Z,10.23
2023-04-28T02:06:26.546Z,9.61
2023-04-28T02:11:23.632Z,9.19
2023-04-28T02:16:49.546Z,9.29
2023-04-28T02:21:48.885Z,10.21
2023-04-28T02:26:47.073Z,10.08
2023-04-28T02:32:05.667Z,8.98
2023-04-28T02:44:00.177Z,10.08
2023-04-28T02:57:01.940Z,8.53
2023-04-28T03:02:17.979Z,8.81
2023-04-28T03:07:16.609Z,9.33
2023-04-28T03:12:11.368Z,8.94
2023-04-28T03:17:04.761Z,9.28
2023-04-28T03:21:58.138Z,9.52
2023-04-28T03:26:51.344Z,8.81
2023-04-28T03:31:46.137Z,9.56
2023-04-28T03:36:39.703Z,9.59
2023-04-28T03:41:40.085Z,9.38
2023-04-28T03:46:53.372Z,9.40
2023-04-28T03:51:46.828Z,9.45
2023-04-28T03:56:41.532Z,9.45
2023-04-28T04:01:36.054Z,9.38
2023-04-28T04:06:30.913Z,9.77
2023-04-28T04:11:24.225Z,9.71
2023-04-28T04:16:17.758Z,9.66
2023-04-28T04:21:10.955Z,9.67
2023-04-28T04:26:05.842Z,9.50
2023-04-28T04:30:59.750Z,9.79
2023-04-28T04:35:53.140Z,9.92
2023-04-28T04:40:46.352Z,9.98
2023-04-28T04:45:41.068Z,9.82
2023-04-28T04:50:34.372Z,9.82
2023-04-28T04:55:28.736Z,10.26
2023-04-28T05:00:24.000Z,9.93
2023-04-28T05:05:22.457Z,10.22
2023-04-28T05:10:42.563Z,10.35
2023-04-28T05:15:36.220Z,10.61
2023-04-28T05:20:54.150Z,10.74
2023-04-28T05:25:47.543Z,10.41
2023-04-28T05:30:41.424Z,10.43
2023-04-28T05:35:37.553Z,10.91
2023-04-28T05:40:32.649Z,11.09
2023-04-28T05:45:27.076Z,11.28
2023-04-28T05:50:21.785Z,10.65
2023-04-28T05:55:17.071Z,11.68
2023-04-28T06:00:35.820Z,12.04
2023-04-28T06:05:29.786Z,12.42
2023-04-28T06:10:28.434Z,11.86
2023-04-28T06:15:23.184Z,12.25
2023-04-28T06:20:28.309Z,11.57
2023-04-28T06:25:21.774Z,12.74
2023-04-28T06:30:21.065Z,11.98
2023-04-28T06:35:17.243Z,12.92
2023-04-28T06:40:12.207Z,12.96
2023-04-28T06:45:10.871Z,12.98
2023-04-28T06:50:04.966Z,12.29
2023-04-28T06:55:03.623Z,12.99
2023-04-28T06:59:57.143Z,12.89
2023-04-28T07:04:50.912Z,12.49
2023-04-28T07:09:46.830Z,12.83
2023-04-28T07:14:41.897Z,12.75
2023-04-28T07:19:36.975Z,14.20
2023-04-28T07:24:30.906Z,13.58
2023-04-28T07:29:24.338Z,14.65
2023-04-28T07:34:19.152Z,14.26
2023-04-28T07:39:12.630Z,14.27
2023-04-28T07:44:06.716Z,13.87
2023-04-28T07:49:04.926Z,13.51
2023-04-28T07:54:00.502Z,14.85
2023-04-28T07:58:54.072Z,14.10
2023-04-28T08:03:48.162Z,14.58
2023-04-28T08:08:47.548Z,15.03
2023-04-28T08:13:42.357Z,14.12
2023-04-28T08:18:35.854Z,14.61
2023-04-28T08:23:32.445Z,15.89
2023-04-28T08:28:31.569Z,16.63
2023-04-28T08:33:29.594Z,17.39
2023-04-28T08:38:25.834Z,17.80
2023-04-28T08:43:24.393Z,18.73
2023-04-28T08:48:31.571Z,19.47
2023-04-28T08:53:32.449Z,20.21
2023-04-28T08:58:36.481Z,21.51
2023-04-28T09:03:38.023Z,21.16
2023-04-28T09:08:36.163Z,21.30
2023-04-28T09:13:29.609Z,22.08
2023-04-28T09:18:23.112Z,22.76
2023-04-28T09:23:22.671Z,21.79
2023-04-28T09:28:24.796Z,22.54
2023-04-28T09:33:18.397Z,21.83
2023-04-28T09:38:11.905Z,21.16
2023-04-28T09:43:26.738Z,20.46
2023-04-28T09:48:28.567Z,19.97
2023-04-28T09:53:24.763Z,18.30
2023-04-28T09:58:23.025Z,18.22
2023-04-28T10:03:21.874Z,17.77
2023-04-28T10:08:21.147Z,17.73
2023-04-28T10:13:14.868Z,17.70
2023-04-28T10:18:10.681Z,16.90
2023-04-28T10:23:27.794Z,18.91
2023-04-28T10:28:23.471Z,18.89
2023-04-28T10:33:30.289Z,19.24
2023-04-28T10:38:24.872Z,18.56
2023-04-28T10:43:40.688Z,17.58
2023-04-28T10:48:59.303Z,16.87
2023-04-28T10:54:20.681Z,17.39
2023-04-28T10:59:28.500Z,16.53
2023-04-28T11:04:24.587Z,17.09
2023-04-28T11:09:49.979Z,17.05
2023-04-28T11:14:46.767Z,16.71
2023-04-28T11:19:52.845Z,17.85
2023-04-28T11:24:58.133Z,18.17
2023-04-28T11:29:57.805Z,16.89
2023-04-28T11:34:54.447Z,17.38
2023-04-28T11:39:48.248Z,16.92
2023-04-28T11:44:55.436Z,16.90
2023-04-28T11:49:49.628Z,16.93
2023-04-28T11:54:44.799Z,16.43
2023-04-28T11:59:39.947Z,17.21
2023-04-28T12:04:38.108Z,16.33
2023-04-28T12:09:33.200Z,15.92
2023-04-28T12:14:28.192Z,16.68
2023-04-28T12:19:24.235Z,18.19
2023-04-28T12:24:21.975Z,20.13
2023-04-28T12:29:35.572Z,22.01
2023-04-28T12:34:30.986Z,22.68
2023-04-28T12:39:24.976Z,23.22
2023-04-28T12:44:18.461Z,25.09
2023-04-28T12:49:11.761Z,26.32
2023-04-28T12:54:07.039Z,26.65
2023-04-28T12:59:00.344Z,24.97
2023-04-28T13:03:53.870Z,22.94
2023-04-28T13:08:47.997Z,21.11
2023-04-28T13:13:43.093Z,21.80
2023-04-28T13:18:36.383Z,23.10
2023-04-28T13:23:29.627Z,24.66
2023-04-28T13:28:22.982Z,24.01
2023-04-28T13:33:20.644Z,23.81
2023-04-28T13:38:15.198Z,24.37
2023-04-28T13:43:08.442Z,25.18
2023-04-28T13:48:03.446Z,26.13
2023-04-28T13:52:58.812Z,26.01
2023-04-28T13:57:53.470Z,25.15
2023-04-28T14:02:49.746Z,23.05
2023-04-28T14:07:43.758Z,21.63
2023-04-28T14:12:38.819Z,21.07
2023-04-28T14:17:32.636Z,21.03
2023-04-28T14:22:27.948Z,21.83
2023-04-28T14:27:24.453Z,21.33
2023-04-28T14:32:21.843Z,21.74
2023-04-28T14:37:16.513Z,22.46
2023-04-28T14:42:10.090Z,22.03
2023-04-28T14:47:05.512Z,22.07
2023-04-28T14:52:02.968Z,22.08
2023-04-28T14:56:56.467Z,21.98
2023-04-28T15:01:50.765Z,21.11
2023-04-28T15:06:44.173Z,20.03
2023-04-28T15:11:38.867Z,19.30
2023-04-28T15:16:32.409Z,18.59
2023-04-28T15:21:29.017Z,17.76
2023-04-28T15:26:23.816Z,18.04
2023-04-28T15:31:18.576Z,17.65
2023-04-28T15:36:12.569Z,17.10
2023-04-28T15:41:06.119Z,17.41
2023-04-28T15:46:01.146Z,17.08
2023-04-28T15:50:58.668Z,16.56
2023-04-28T15:55:52.010Z,16.92
2023-04-28T16:00:46.604Z,16.68
2023-04-28T16:05:40.462Z,16.68
2023-04-28T16:10:35.073Z,16.53
2023-04-28T16:15:28.280Z,16.38
2023-04-28T16:20:21.702Z,14.97
2023-04-28T16:25:15.011Z,16.17
2023-04-28T16:30:12.229Z,15.90
2023-04-28T16:35:07.874Z,15.49
2023-04-28T16:40:01.536Z,15.80
2023-04-28T16:44:55.046Z,15.70
2023-04-28T16:49:50.861Z,14.97
2023-04-28T16:54:44.386Z,15.30
2023-04-28T16:59:37.776Z,15.20
2023-04-28T17:04:33.203Z,14.62
2023-04-28T17:09:28.189Z,15.00
2023-04-28T17:14:21.486Z,14.85
2023-04-28T17:19:14.978Z,14.21
2023-04-28T17:24:08.800Z,14.39
2023-04-28T17:29:03.520Z,14.38
2023-04-28T17:33:58.320Z,14.04
2023-04-28T17:38:52.412Z,13.67
2023-04-28T17:43:53.926Z,13.58
2023-04-28T17:48:49.291Z,13.78
2023-04-28T17:53:46.120Z,12.77
2023-04-28T17:58:51.608Z,12.55
2023-04-28T18:03:45.479Z,13.70
2023-04-28T18:08:42.750Z,13.24
2023-04-28T18:13:39.406Z,12.12
2023-04-28T18:18:35.534Z,12.33
2023-04-28T18:23:30.505Z,12.83
2023-04-28T18:28:29.883Z,13.23
2023-04-28T18:33:26.041Z,12.78
2023-04-28T18:38:20.491Z,12.03
2023-04-28T18:48:46.100Z,12.78
2023-04-28T18:53:39.597Z,11.70
2023-04-28T18:58:33.011Z,11.46
2023-04-28T19:03:34.342Z,12.35
2023-04-28T19:08:29.268Z,12.21
2023-04-28T19:13:26.906Z,11.98
2023-04-28T19:18:29.874Z,11.10
2023-04-28T19:23:23.380Z,11.81
2023-04-28T19:28:23.221Z,11.32
2023-04-28T19:33:21.930Z,10.49
2023-04-28T19:38:18.192Z,11.56
2023-04-28T19:43:16.048Z,10.74
2023-04-28T19:48:14.381Z,10.63
2023-04-28T19:53:08.399Z,11.37
2023-04-28T19:58:02.811Z,11.28
2023-04-28T20:03:02.532Z,9.77
2023-04-28T20:07:58.183Z,10.79
2023-04-28T20:12:51.760Z,10.42
2023-04-28T20:17:46.215Z,10.41
2023-04-28T20:22:41.350Z,10.24
2023-04-28T20:27:38.207Z,10.71
2023-04-28T20:32:35.198Z,10.40
2023-04-28T20:37:30.229Z,10.60
2023-04-28T20:42:27.238Z,10.57
2023-04-28T20:47:24.510Z,10.47
2023-04-28T20:52:21.983Z,10.13
2023-04-28T20:57:16.510Z,9.71
2023-04-28T21:02:10.483Z,9.39
2023-04-28T21:07:07.038Z,9.04
2023-04-28T21:12:11.026Z,10.05
2023-04-28T21:17:09.611Z,9.53
2023-04-28T21:22:05.741Z,9.65
2023-04-28T21:27:02.931Z,8.81
2023-04-28T21:31:56.436Z,8.88
2023-04-28T21:36:52.788Z,9.55
2023-04-28T21:41:50.519Z,9.18
2023-04-28T21:46:44.921Z,9.57
2023-04-28T21:51:51.056Z,9.44
2023-04-28T21:56:44.399Z,10.57
2023-04-28T22:01:41.793Z,10.74
2023-04-28T22:06:37.584Z,10.85
2023-04-28T22:11:33.565Z,10.74
2023-04-28T22:16:31.353Z,10.59
2023-04-28T22:21:29.900Z,9.99
2023-04-28T22:26:24.463Z,10.65
2023-04-28T22:31:20.368Z,10.32
2023-04-28T22:36:19.334Z,10.01
2023-04-28T22:42:23.111Z,9.69
2023-04-28T22:47:21.963Z,10.17
2023-04-28T22:52:41.200Z,10.50
2023-04-28T22:57:40.886Z,9.78
2023-04-28T23:02:46.553Z,9.87
2023-04-28T23:07:46.773Z,10.27
2023-04-28T23:12:43.993Z,10.55
2023-04-28T23:17:42.883Z,10.36
2023-04-28T23:22:36.319Z,10.43
2023-04-28T23:27:32.067Z,9.83
2023-04-28T23:32:27.087Z,9.50
2023-04-28T23:37:20.715Z,9.58
2023-04-28T23:42:18.838Z,9.19
2023-04-28T23:47:12.179Z,7.65
2023-04-28T23:52:09.593Z,7.87
2023-04-28T23:57:03.007Z,8.60
